Star Flyer — 9HA2512 — position and weather

sailwx.info

Track history (hours):
 
Tides and Currents Weather Stations Pressure Air Temp Water Temp Dewpoint Dewpoint Depression Visibility Wind Speed Wind Dir Waves Ship Positions

Star Flyer

Last reported at 2019-Oct-16 05:22 UTC. Time now 2019-Oct-17 18:44 UTC.
Position N 37°19' E 023°01'.

Length 112 m; draft 5.8 m.

Type: Ship. MMSI: 248785000.

Date/timePositionNaut miles runAvg speedWind from/ knotsBaromVisibWave heightAir tempDewpointWater temp
2019-Oct-16 05:22N 37°19' E 023°01'3 6.3
2019-Oct-16 04:57N 37°17' E 023°03'6 6.4
2019-Oct-16 04:04N 37°13' E 023°08'28 5.8
2019-Oct-15 23:10N 37°28' E 023°38'9 6.6
2019-Oct-15 21:51N 37°36' E 023°41'2 6.6
2019-Oct-15 21:29N 37°39' E 023°42'4 7.5
2019-Oct-15 21:00N 37°42' E 023°41'4 8.0
2019-Oct-15 20:30N 37°46' E 023°38'4 7.8
2019-Oct-15 20:00N 37°49' E 023°36'4 7.5
2019-Oct-15 19:30N 37°53' E 023°37'4 7.1
2019-Oct-15 19:00N 37°56' E 023°38'0 0.4
2019-Oct-15 18:14N 37°56' E 023°38'0 0.0
2019-Oct-15 17:50N 37°56' E 023°38'0 0.0
2019-Oct-15 17:20N 37°56' E 023°38'0 0.0
2019-Oct-15 16:53N 37°56' E 023°38'0 0.0
2019-Oct-15 16:20N 37°56' E 023°38'0 0.0
2019-Oct-15 15:56N 37°56' E 023°38'0 0.0
2019-Oct-15 15:26N 37°56' E 023°38'0 0.0
2019-Oct-15 14:50N 37°56' E 023°38'0 0.0
2019-Oct-15 14:26N 37°56' E 023°38'0 0.0
2019-Oct-15 13:56N 37°56' E 023°38'0 0.0
2019-Oct-15 13:26N 37°56' E 023°38'0 0.0
2019-Oct-15 12:50N 37°56' E 023°38'0 0.0
2019-Oct-15 12:26N 37°56' E 023°38'0 0.0
2019-Oct-15 11:56N 37°56' E 023°38'0 0.0
2019-Oct-15 11:27N 37°56' E 023°38'0 0.0
2019-Oct-15 10:57N 37°56' E 023°38'0 0.0
2019-Oct-15 10:27N 37°56' E 023°38'0 0.0
2019-Oct-15 09:57N 37°56' E 023°38'0 0.0
2019-Oct-15 09:03N 37°56' E 023°38'0 0.1
2019-Oct-15 08:59N 37°56' E 023°38'0 0.0
2019-Oct-15 08:06N 37°56' E 023°38'0 0.0
2019-Oct-15 08:00N 37°56' E 023°38'0 0.0
2019-Oct-15 07:30N 37°56' E 023°38'0 0.0
2019-Oct-15 06:42N 37°56' E 023°38'0 0.0
2019-Oct-15 06:30N 37°56' E 023°38'0 0.0
2019-Oct-15 05:57N 37°56' E 023°38'0 0.0
2019-Oct-15 05:24N 37°56' E 023°38'0 0.0
2019-Oct-15 05:00N 37°56' E 023°38'0 0.0
2019-Oct-15 04:30N 37°56' E 023°38'0 0.0
2019-Oct-15 03:57N 37°56' E 023°38'0 0.2
2019-Oct-15 03:30N 37°56' E 023°38'2 3.9
2019-Oct-15 03:00N 37°55' E 023°36'2 3.6
2019-Oct-15 02:30N 37°54' E 023°37'3 5.8
2019-Oct-15 02:00N 37°51' E 023°38'3 6.9
2019-Oct-15 01:30N 37°48' E 023°40'4 7.5
2019-Oct-15 01:00N 37°45' E 023°43'4 8.1
2019-Oct-15 00:30N 37°41' E 023°45'5 8.2
2019-Oct-14 23:55N 37°39' E 023°50'43 8.8
2019-Oct-14 19:00N 37°32' E 024°44'1 2.9
2019-Oct-14 18:30N 37°32' E 024°46'1 2.2
2019-Oct-14 18:00N 37°32' E 024°47'1 2.7
2019-Oct-14 17:30N 37°32' E 024°49'2 3.7
2019-Oct-14 17:00N 37°32' E 024°51'4 8.1
2019-Oct-14 16:30N 37°32' E 024°56'6 8.0
2019-Oct-14 15:48N 37°30' E 025°03'2 7.4
2019-Oct-14 15:30N 37°30' E 025°06'4 7.9
2019-Oct-14 15:00N 37°29' E 025°11'4 7.9
2019-Oct-14 14:30N 37°29' E 025°16'3 5.3
2019-Oct-14 13:53N 37°27' E 025°19'0 0.0
2019-Oct-14 13:28N 37°27' E 025°19'0 0.0
2019-Oct-14 12:58N 37°27' E 025°19'0 0.0
2019-Oct-14 12:28N 37°27' E 025°19'0 0.0
2019-Oct-14 11:58N 37°27' E 025°19'0 0.0
2019-Oct-14 11:28N 37°27' E 025°19'0 0.0
2019-Oct-14 10:58N 37°27' E 025°19'0 0.0
2019-Oct-14 10:28N 37°27' E 025°19'0 0.0
2019-Oct-14 09:55N 37°27' E 025°19'0 0.0
2019-Oct-14 09:26N 37°27' E 025°19'0 0.0
2019-Oct-14 08:58N 37°27' E 025°19'0 0.0
2019-Oct-14 08:25N 37°27' E 025°19'0 0.0
2019-Oct-14 07:58N 37°27' E 025°19'0 0.0
2019-Oct-14 07:28N 37°27' E 025°19'0 0.0
2019-Oct-14 06:58N 37°27' E 025°19'0 0.0
2019-Oct-14 06:29N 37°27' E 025°19'1 2.4
2019-Oct-14 06:00N 37°27' E 025°18'3 5.9
2019-Oct-14 05:30N 37°24' E 025°17'3 6.7
2019-Oct-14 05:00N 37°21' E 025°18'4 7.1
2019-Oct-14 04:30N 37°17' E 025°18'4 7.3
2019-Oct-14 04:00N 37°14' E 025°18'4 7.5
2019-Oct-14 03:30N 37°10' E 025°19'4 7.7
2019-Oct-14 03:00N 37°06' E 025°19'4 7.7
2019-Oct-14 02:30N 37°02' E 025°18'  
2019-Oct-06 07:43N 44°36' E 014°10'1 4.3
2019-Oct-06 07:30N 44°37' E 014°09'1 2.5
2019-Oct-06 07:00N 44°37' E 014°07'2 3.1
2019-Oct-06 06:29N 44°38' E 014°05'5 7.7
2019-Oct-06 05:49N 44°41' E 013°59'3 7.2
2019-Oct-06 05:28N 44°42' E 013°56'  
Track history (hours):
 
Tides and Currents Weather Stations Pressure Air Temp Water Temp Dewpoint Dewpoint Depression Visibility Wind Speed Wind Dir Waves Ship Positions

Star Flyer

Last reported at 2019-Oct-16 05:22 UTC. Time now 2019-Oct-17 18:44 UTC.
Position N 37°19' E 023°01'.

Length 112 m; draft 5.8 m.

Type: Ship. MMSI: 248785000.

Date/timePositionNaut miles runAvg speedWind from/ knotsBaromVisibWave heightAir tempDewpointWater temp
2019-Oct-16 05:22N 37°19' E 023°01'3 6.3
2019-Oct-16 04:57N 37°17' E 023°03'6 6.4
2019-Oct-16 04:04N 37°13' E 023°08'28 5.8
2019-Oct-15 23:10N 37°28' E 023°38'9 6.6
2019-Oct-15 21:51N 37°36' E 023°41'2 6.6
2019-Oct-15 21:29N 37°39' E 023°42'4 7.5
2019-Oct-15 21:00N 37°42' E 023°41'4 8.0
2019-Oct-15 20:30N 37°46' E 023°38'4 7.8
2019-Oct-15 20:00N 37°49' E 023°36'4 7.5
2019-Oct-15 19:30N 37°53' E 023°37'4 7.1
2019-Oct-15 19:00N 37°56' E 023°38'0 0.4
2019-Oct-15 18:14N 37°56' E 023°38'0 0.0
2019-Oct-15 17:50N 37°56' E 023°38'0 0.0
2019-Oct-15 17:20N 37°56' E 023°38'0 0.0
2019-Oct-15 16:53N 37°56' E 023°38'0 0.0
2019-Oct-15 16:20N 37°56' E 023°38'0 0.0
2019-Oct-15 15:56N 37°56' E 023°38'0 0.0
2019-Oct-15 15:26N 37°56' E 023°38'0 0.0
2019-Oct-15 14:50N 37°56' E 023°38'0 0.0
2019-Oct-15 14:26N 37°56' E 023°38'0 0.0
2019-Oct-15 13:56N 37°56' E 023°38'0 0.0
2019-Oct-15 13:26N 37°56' E 023°38'0 0.0
2019-Oct-15 12:50N 37°56' E 023°38'0 0.0
2019-Oct-15 12:26N 37°56' E 023°38'0 0.0
2019-Oct-15 11:56N 37°56' E 023°38'0 0.0
2019-Oct-15 11:27N 37°56' E 023°38'0 0.0
2019-Oct-15 10:57N 37°56' E 023°38'0 0.0
2019-Oct-15 10:27N 37°56' E 023°38'0 0.0
2019-Oct-15 09:57N 37°56' E 023°38'0 0.0
2019-Oct-15 09:03N 37°56' E 023°38'0 0.1
2019-Oct-15 08:59N 37°56' E 023°38'0 0.0
2019-Oct-15 08:06N 37°56' E 023°38'0 0.0
2019-Oct-15 08:00N 37°56' E 023°38'0 0.0
2019-Oct-15 07:30N 37°56' E 023°38'0 0.0
2019-Oct-15 06:42N 37°56' E 023°38'0 0.0
2019-Oct-15 06:30N 37°56' E 023°38'0 0.0
2019-Oct-15 05:57N 37°56' E 023°38'0 0.0
2019-Oct-15 05:24N 37°56' E 023°38'0 0.0
2019-Oct-15 05:00N 37°56' E 023°38'0 0.0
2019-Oct-15 04:30N 37°56' E 023°38'0 0.0
2019-Oct-15 03:57N 37°56' E 023°38'0 0.2
2019-Oct-15 03:30N 37°56' E 023°38'2 3.9
2019-Oct-15 03:00N 37°55' E 023°36'2 3.6
2019-Oct-15 02:30N 37°54' E 023°37'3 5.8
2019-Oct-15 02:00N 37°51' E 023°38'3 6.9
2019-Oct-15 01:30N 37°48' E 023°40'4 7.5
2019-Oct-15 01:00N 37°45' E 023°43'4 8.1
2019-Oct-15 00:30N 37°41' E 023°45'5 8.2
2019-Oct-14 23:55N 37°39' E 023°50'43 8.8
2019-Oct-14 19:00N 37°32' E 024°44'1 2.9
2019-Oct-14 18:30N 37°32' E 024°46'1 2.2
2019-Oct-14 18:00N 37°32' E 024°47'1 2.7
2019-Oct-14 17:30N 37°32' E 024°49'2 3.7
2019-Oct-14 17:00N 37°32' E 024°51'4 8.1
2019-Oct-14 16:30N 37°32' E 024°56'6 8.0
2019-Oct-14 15:48N 37°30' E 025°03'2 7.4
2019-Oct-14 15:30N 37°30' E 025°06'4 7.9
2019-Oct-14 15:00N 37°29' E 025°11'4 7.9
2019-Oct-14 14:30N 37°29' E 025°16'3 5.3
2019-Oct-14 13:53N 37°27' E 025°19'0 0.0
2019-Oct-14 13:28N 37°27' E 025°19'0 0.0
2019-Oct-14 12:58N 37°27' E 025°19'0 0.0
2019-Oct-14 12:28N 37°27' E 025°19'0 0.0
2019-Oct-14 11:58N 37°27' E 025°19'0 0.0
2019-Oct-14 11:28N 37°27' E 025°19'0 0.0
2019-Oct-14 10:58N 37°27' E 025°19'0 0.0
2019-Oct-14 10:28N 37°27' E 025°19'0 0.0
2019-Oct-14 09:55N 37°27' E 025°19'0 0.0
2019-Oct-14 09:26N 37°27' E 025°19'0 0.0
2019-Oct-14 08:58N 37°27' E 025°19'0 0.0
2019-Oct-14 08:25N 37°27' E 025°19'0 0.0
2019-Oct-14 07:58N 37°27' E 025°19'0 0.0
2019-Oct-14 07:28N 37°27' E 025°19'0 0.0
2019-Oct-14 06:58N 37°27' E 025°19'0 0.0
2019-Oct-14 06:29N 37°27' E 025°19'1 2.4
2019-Oct-14 06:00N 37°27' E 025°18'3 5.9
2019-Oct-14 05:30N 37°24' E 025°17'3 6.7
2019-Oct-14 05:00N 37°21' E 025°18'4 7.1
2019-Oct-14 04:30N 37°17' E 025°18'4 7.3
2019-Oct-14 04:00N 37°14' E 025°18'4 7.5
2019-Oct-14 03:30N 37°10' E 025°19'4 7.7
2019-Oct-14 03:00N 37°06' E 025°19'4 7.7
2019-Oct-14 02:30N 37°02' E 025°18'  
2019-Oct-06 07:43N 44°36' E 014°10'1 4.3
2019-Oct-06 07:30N 44°37' E 014°09'1 2.5
2019-Oct-06 07:00N 44°37' E 014°07'2 3.1
2019-Oct-06 06:29N 44°38' E 014°05'5 7.7
2019-Oct-06 05:49N 44°41' E 013°59'3 7.2
2019-Oct-06 05:28N 44°42' E 013°56'  

Dump ship's entire track history